sensor_id;sensor_type;location;lat;lon;timestamp;P1;durP1;ratioP1;P2;durP2;ratioP2
21890;SDS011;11110;52.386;16.940;2022-08-01T00:00:08;21.75;;;6.25;;
21890;SDS011;11110;52.386;16.940;2022-08-01T00:02:57;23.45;;;6.55;;
21890;SDS011;11110;52.386;16.940;2022-08-01T00:05:26;22.58;;;6.55;;
21890;SDS011;11110;52.386;16.940;2022-08-01T00:07:54;19.85;;;6.15;;
21890;SDS011;11110;52.386;16.940;2022-08-01T00:10:22;25.70;;;7.13;;
21890;SDS011;11110;52.386;16.940;2022-08-01T00:12:52;23.85;;;6.78;;
21890;SDS011;11110;52.386;16.940;2022-08-01T00:15:20;21.25;;;6.60;;
21890;SDS011;11110;52.386;16.940;2022-08-01T00:17:49;20.40;;;5.97;;
21890;SDS011;11110;52.386;16.940;2022-08-01T00:20:17;21.75;;;6.07;;
21890;SDS011;11110;52.386;16.940;2022-08-01T00:22:46;20.38;;;5.95;;
21890;SDS011;11110;52.386;16.940;2022-08-01T00:25:14;24.48;;;6.35;;
21890;SDS011;11110;52.386;16.940;2022-08-01T00:27:42;21.33;;;6.07;;
21890;SDS011;11110;52.386;16.940;2022-08-01T00:30:14;21.85;;;6.05;;
21890;SDS011;11110;52.386;16.940;2022-08-01T00:32:42;27.65;;;7.10;;
21890;SDS011;11110;52.386;16.940;2022-08-01T00:35:11;20.83;;;5.60;;
21890;SDS011;11110;52.386;16.940;2022-08-01T00:37:40;17.42;;;5.32;;
21890;SDS011;11110;52.386;16.940;2022-08-01T00:40:08;21.98;;;6.63;;
21890;SDS011;11110;52.386;16.940;2022-08-01T00:42:37;21.05;;;5.90;;
21890;SDS011;11110;52.386;16.940;2022-08-01T00:45:09;22.17;;;6.18;;
21890;SDS011;11110;52.386;16.940;2022-08-01T00:47:39;22.75;;;6.03;;
21890;SDS011;11110;52.386;16.940;2022-08-01T00:50:09;21.73;;;5.55;;
21890;SDS011;11110;52.386;16.940;2022-08-01T00:52:38;23.90;;;6.13;;
21890;SDS011;11110;52.386;16.940;2022-08-01T00:55:08;24.90;;;6.22;;
21890;SDS011;11110;52.386;16.940;2022-08-01T00:57:41;24.85;;;6.18;;
21890;SDS011;11110;52.386;16.940;2022-08-01T01:00:29;25.50;;;6.97;;
21890;SDS011;11110;52.386;16.940;2022-08-01T01:03:19;22.90;;;5.80;;
21890;SDS011;11110;52.386;16.940;2022-08-01T01:06:10;22.35;;;5.88;;
21890;SDS011;11110;52.386;16.940;2022-08-01T01:08:53;23.27;;;5.78;;
21890;SDS011;11110;52.386;16.940;2022-08-01T01:11:37;21.55;;;5.82;;
21890;SDS011;11110;52.386;16.940;2022-08-01T01:14:16;22.75;;;5.97;;
21890;SDS011;11110;52.386;16.940;2022-08-01T01:16:51;24.65;;;6.47;;
21890;SDS011;11110;52.386;16.940;2022-08-01T01:19:23;21.33;;;6.18;;
21890;SDS011;11110;52.386;16.940;2022-08-01T01:22:05;26.38;;;6.45;;
21890;SDS011;11110;52.386;16.940;2022-08-01T01:24:48;17.58;;;5.43;;
21890;SDS011;11110;52.386;16.940;2022-08-01T01:27:36;18.88;;;5.57;;
21890;SDS011;11110;52.386;16.940;2022-08-01T01:30:14;22.85;;;6.07;;
21890;SDS011;11110;52.386;16.940;2022-08-01T01:32:43;18.58;;;5.50;;
21890;SDS011;11110;52.386;16.940;2022-08-01T01:35:15;22.90;;;6.35;;
21890;SDS011;11110;52.386;16.940;2022-08-01T01:37:46;22.75;;;6.43;;
21890;SDS011;11110;52.386;16.940;2022-08-01T01:40:17;20.85;;;5.85;;
21890;SDS011;11110;52.386;16.940;2022-08-01T01:42:47;23.20;;;6.65;;
21890;SDS011;11110;52.386;16.940;2022-08-01T01:45:18;23.33;;;6.63;;
21890;SDS011;11110;52.386;16.940;2022-08-01T01:47:48;22.85;;;6.55;;
21890;SDS011;11110;52.386;16.940;2022-08-01T01:50:16;22.42;;;6.50;;
21890;SDS011;11110;52.386;16.940;2022-08-01T01:52:48;21.95;;;6.18;;
21890;SDS011;11110;52.386;16.940;2022-08-01T01:55:17;23.77;;;6.68;;
21890;SDS011;11110;52.386;16.940;2022-08-01T01:57:48;22.35;;;6.72;;
21890;SDS011;11110;52.386;16.940;2022-08-01T02:00:20;25.60;;;7.03;;
21890;SDS011;11110;52.386;16.940;2022-08-01T02:02:49;22.80;;;6.65;;
21890;SDS011;11110;52.386;16.940;2022-08-01T02:05:20;21.08;;;6.13;;
21890;SDS011;11110;52.386;16.940;2022-08-01T02:07:49;23.45;;;6.25;;
21890;SDS011;11110;52.386;16.940;2022-08-01T02:10:25;20.05;;;5.65;;
21890;SDS011;11110;52.386;16.940;2022-08-01T02:12:55;30.25;;;7.07;;
21890;SDS011;11110;52.386;16.940;2022-08-01T02:15:27;20.83;;;5.95;;
21890;SDS011;11110;52.386;16.940;2022-08-01T02:18:00;21.75;;;5.82;;
21890;SDS011;11110;52.386;16.940;2022-08-01T02:20:30;25.13;;;6.60;;
21890;SDS011;11110;52.386;16.940;2022-08-01T02:23:01;22.60;;;6.03;;
21890;SDS011;11110;52.386;16.940;2022-08-01T02:25:36;21.70;;;5.95;;
21890;SDS011;11110;52.386;16.940;2022-08-01T02:28:30;19.98;;;5.93;;
21890;SDS011;11110;52.386;16.940;2022-08-01T02:31:06;20.35;;;5.90;;
21890;SDS011;11110;52.386;16.940;2022-08-01T02:33:40;17.30;;;5.78;;
21890;SDS011;11110;52.386;16.940;2022-08-01T02:36:11;20.17;;;5.65;;
21890;SDS011;11110;52.386;16.940;2022-08-01T02:38:59;17.88;;;5.50;;
21890;SDS011;11110;52.386;16.940;2022-08-01T02:41:30;18.17;;;5.53;;
21890;SDS011;11110;52.386;16.940;2022-08-01T02:44:04;18.95;;;5.35;;
21890;SDS011;11110;52.386;16.940;2022-08-01T02:46:36;15.38;;;4.95;;
21890;SDS011;11110;52.386;16.940;2022-08-01T02:49:08;16.48;;;4.90;;
21890;SDS011;11110;52.386;16.940;2022-08-01T02:51:39;17.48;;;5.38;;
21890;SDS011;11110;52.386;16.940;2022-08-01T02:54:09;15.10;;;5.05;;
21890;SDS011;11110;52.386;16.940;2022-08-01T02:56:39;14.13;;;4.97;;
21890;SDS011;11110;52.386;16.940;2022-08-01T02:59:13;15.23;;;5.18;;
21890;SDS011;11110;52.386;16.940;2022-08-01T03:01:49;18.98;;;7.10;;
21890;SDS011;11110;52.386;16.940;2022-08-01T03:04:21;20.35;;;6.78;;
21890;SDS011;11110;52.386;16.940;2022-08-01T03:06:51;18.38;;;6.38;;
21890;SDS011;11110;52.386;16.940;2022-08-01T03:09:21;17.98;;;5.55;;
21890;SDS011;11110;52.386;16.940;2022-08-01T03:11:51;21.88;;;6.20;;
21890;SDS011;11110;52.386;16.940;2022-08-01T03:14:21;19.83;;;5.97;;
21890;SDS011;11110;52.386;16.940;2022-08-01T03:16:53;14.52;;;5.13;;
21890;SDS011;11110;52.386;16.940;2022-08-01T03:19:24;21.38;;;6.07;;
21890;SDS011;11110;52.386;16.940;2022-08-01T03:21:54;17.35;;;5.30;;
21890;SDS011;11110;52.386;16.940;2022-08-01T03:24:26;20.42;;;6.10;;
21890;SDS011;11110;52.386;16.940;2022-08-01T03:26:56;22.88;;;6.47;;
21890;SDS011;11110;52.386;16.940;2022-08-01T03:29:25;25.90;;;7.50;;
21890;SDS011;11110;52.386;16.940;2022-08-01T03:31:57;19.98;;;6.22;;
21890;SDS011;11110;52.386;16.940;2022-08-01T03:34:27;18.17;;;5.68;;
21890;SDS011;11110;52.386;16.940;2022-08-01T03:37:05;19.25;;;6.13;;
21890;SDS011;11110;52.386;16.940;2022-08-01T03:39:40;19.80;;;6.70;;
21890;SDS011;11110;52.386;16.940;2022-08-01T03:42:12;17.15;;;6.20;;
21890;SDS011;11110;52.386;16.940;2022-08-01T03:44:45;20.23;;;6.40;;
21890;SDS011;11110;52.386;16.940;2022-08-01T03:47:21;20.25;;;6.38;;
21890;SDS011;11110;52.386;16.940;2022-08-01T03:49:53;18.23;;;6.05;;
21890;SDS011;11110;52.386;16.940;2022-08-01T03:52:24;23.58;;;6.80;;
21890;SDS011;11110;52.386;16.940;2022-08-01T03:54:56;21.67;;;7.05;;
21890;SDS011;11110;52.386;16.940;2022-08-01T03:57:29;22.30;;;6.90;;
21890;SDS011;11110;52.386;16.940;2022-08-01T04:00:03;18.15;;;6.25;;
21890;SDS011;11110;52.386;16.940;2022-08-01T04:02:42;17.33;;;5.97;;
21890;SDS011;11110;52.386;16.940;2022-08-01T04:05:10;18.38;;;6.65;;
21890;SDS011;11110;52.386;16.940;2022-08-01T04:07:39;15.10;;;6.22;;
21890;SDS011;11110;52.386;16.940;2022-08-01T04:10:09;17.80;;;5.90;;
21890;SDS011;11110;52.386;16.940;2022-08-01T04:12:38;23.08;;;6.57;;
21890;SDS011;11110;52.386;16.940;2022-08-01T04:15:07;18.05;;;6.15;;
21890;SDS011;11110;52.386;16.940;2022-08-01T04:17:35;18.65;;;6.38;;
21890;SDS011;11110;52.386;16.940;2022-08-01T04:20:06;18.40;;;6.28;;
21890;SDS011;11110;52.386;16.940;2022-08-01T04:22:36;16.50;;;6.53;;
21890;SDS011;11110;52.386;16.940;2022-08-01T04:25:07;22.83;;;7.18;;
21890;SDS011;11110;52.386;16.940;2022-08-01T04:27:40;15.93;;;5.80;;
21890;SDS011;11110;52.386;16.940;2022-08-01T04:30:17;19.33;;;6.82;;
21890;SDS011;11110;52.386;16.940;2022-08-01T04:32:48;19.65;;;6.43;;
21890;SDS011;11110;52.386;16.940;2022-08-01T04:35:19;21.58;;;6.90;;
21890;SDS011;11110;52.386;16.940;2022-08-01T04:38:09;20.15;;;6.65;;
21890;SDS011;11110;52.386;16.940;2022-08-01T04:40:40;27.65;;;7.88;;
21890;SDS011;11110;52.386;16.940;2022-08-01T04:43:09;18.40;;;6.95;;
21890;SDS011;11110;52.386;16.940;2022-08-01T04:45:40;20.38;;;6.72;;
21890;SDS011;11110;52.386;16.940;2022-08-01T04:48:11;17.55;;;6.55;;
21890;SDS011;11110;52.386;16.940;2022-08-01T04:50:44;19.83;;;6.68;;
21890;SDS011;11110;52.386;16.940;2022-08-01T04:53:13;19.80;;;6.43;;
21890;SDS011;11110;52.386;16.940;2022-08-01T04:55:43;18.40;;;6.50;;
21890;SDS011;11110;52.386;16.940;2022-08-01T04:58:12;16.42;;;6.28;;
21890;SDS011;11110;52.386;16.940;2022-08-01T05:00:44;24.05;;;7.22;;
21890;SDS011;11110;52.386;16.940;2022-08-01T05:03:13;20.13;;;7.28;;
21890;SDS011;11110;52.386;16.940;2022-08-01T05:05:42;19.63;;;6.93;;
21890;SDS011;11110;52.386;16.940;2022-08-01T05:08:11;24.83;;;7.30;;
21890;SDS011;11110;52.386;16.940;2022-08-01T05:10:39;21.55;;;7.28;;
21890;SDS011;11110;52.386;16.940;2022-08-01T05:13:08;18.35;;;6.65;;
21890;SDS011;11110;52.386;16.940;2022-08-01T05:15:37;17.02;;;5.75;;
21890;SDS011;11110;52.386;16.940;2022-08-01T05:18:06;19.33;;;6.32;;
21890;SDS011;11110;52.386;16.940;2022-08-01T05:20:35;20.55;;;6.75;;
21890;SDS011;11110;52.386;16.940;2022-08-01T05:23:06;20.70;;;7.20;;
21890;SDS011;11110;52.386;16.940;2022-08-01T05:25:41;17.58;;;6.38;;
21890;SDS011;11110;52.386;16.940;2022-08-01T05:28:23;20.05;;;6.68;;
21890;SDS011;11110;52.386;16.940;2022-08-01T05:30:51;20.80;;;7.05;;
21890;SDS011;11110;52.386;16.940;2022-08-01T05:33:21;22.25;;;7.10;;
21890;SDS011;11110;52.386;16.940;2022-08-01T05:35:50;23.13;;;7.43;;
21890;SDS011;11110;52.386;16.940;2022-08-01T05:38:20;23.33;;;7.00;;
21890;SDS011;11110;52.386;16.940;2022-08-01T05:40:48;16.50;;;6.47;;
21890;SDS011;11110;52.386;16.940;2022-08-01T05:43:17;20.80;;;6.97;;
21890;SDS011;11110;52.386;16.940;2022-08-01T05:45:49;21.60;;;6.60;;
21890;SDS011;11110;52.386;16.940;2022-08-01T05:48:18;15.90;;;5.85;;
21890;SDS011;11110;52.386;16.940;2022-08-01T05:50:46;18.38;;;6.20;;
21890;SDS011;11110;52.386;16.940;2022-08-01T05:53:16;22.13;;;7.10;;
21890;SDS011;11110;52.386;16.940;2022-08-01T05:55:45;17.50;;;6.07;;
21890;SDS011;11110;52.386;16.940;2022-08-01T05:58:14;17.02;;;6.22;;
21890;SDS011;11110;52.386;16.940;2022-08-01T06:00:42;20.90;;;6.65;;
21890;SDS011;11110;52.386;16.940;2022-08-01T06:03:10;14.93;;;5.88;;
21890;SDS011;11110;52.386;16.940;2022-08-01T06:05:39;20.50;;;5.93;;
21890;SDS011;11110;52.386;16.940;2022-08-01T06:08:07;20.15;;;6.63;;
21890;SDS011;11110;52.386;16.940;2022-08-01T06:10:35;20.50;;;6.55;;
21890;SDS011;11110;52.386;16.940;2022-08-01T06:13:05;20.52;;;6.43;;
21890;SDS011;11110;52.386;16.940;2022-08-01T06:15:33;25.00;;;7.10;;
21890;SDS011;11110;52.386;16.940;2022-08-01T06:18:01;21.95;;;6.88;;
21890;SDS011;11110;52.386;16.940;2022-08-01T06:20:31;17.08;;;5.97;;
21890;SDS011;11110;52.386;16.940;2022-08-01T06:22:59;16.80;;;6.30;;
21890;SDS011;11110;52.386;16.940;2022-08-01T06:25:40;16.00;;;5.93;;
21890;SDS011;11110;52.386;16.940;2022-08-01T06:28:09;22.00;;;6.63;;
21890;SDS011;11110;52.386;16.940;2022-08-01T06:30:38;18.75;;;6.25;;
21890;SDS011;11110;52.386;16.940;2022-08-01T06:33:07;20.85;;;6.72;;
21890;SDS011;11110;52.386;16.940;2022-08-01T06:35:35;22.27;;;6.47;;
21890;SDS011;11110;52.386;16.940;2022-08-01T06:38:03;22.02;;;7.30;;
21890;SDS011;11110;52.386;16.940;2022-08-01T06:40:31;21.58;;;7.32;;
21890;SDS011;11110;52.386;16.940;2022-08-01T06:43:02;19.95;;;6.88;;
21890;SDS011;11110;52.386;16.940;2022-08-01T06:45:31;23.60;;;7.40;;
21890;SDS011;11110;52.386;16.940;2022-08-01T06:47:59;21.20;;;6.68;;
21890;SDS011;11110;52.386;16.940;2022-08-01T06:50:28;23.15;;;7.53;;
21890;SDS011;11110;52.386;16.940;2022-08-01T06:52:56;14.38;;;6.00;;
21890;SDS011;11110;52.386;16.940;2022-08-01T06:55:24;19.05;;;6.60;;
21890;SDS011;11110;52.386;16.940;2022-08-01T06:57:53;14.88;;;6.43;;
21890;SDS011;11110;52.386;16.940;2022-08-01T07:00:22;20.55;;;6.90;;
21890;SDS011;11110;52.386;16.940;2022-08-01T07:02:53;19.63;;;6.35;;
21890;SDS011;11110;52.386;16.940;2022-08-01T07:05:23;20.48;;;7.32;;
21890;SDS011;11110;52.386;16.940;2022-08-01T07:07:51;20.88;;;7.15;;
21890;SDS011;11110;52.386;16.940;2022-08-01T07:10:20;18.20;;;6.55;;
21890;SDS011;11110;52.386;16.940;2022-08-01T07:12:49;18.42;;;7.20;;
21890;SDS011;11110;52.386;16.940;2022-08-01T07:15:18;21.45;;;7.18;;
21890;SDS011;11110;52.386;16.940;2022-08-01T07:17:48;17.00;;;7.00;;
21890;SDS011;11110;52.386;16.940;2022-08-01T07:20:18;16.63;;;6.82;;
21890;SDS011;11110;52.386;16.940;2022-08-01T07:22:47;21.92;;;7.63;;
21890;SDS011;11110;52.386;16.940;2022-08-01T07:25:16;18.50;;;6.60;;
21890;SDS011;11110;52.386;16.940;2022-08-01T07:27:44;19.77;;;7.28;;
21890;SDS011;11110;52.386;16.940;2022-08-01T07:30:13;23.70;;;7.50;;
21890;SDS011;11110;52.386;16.940;2022-08-01T07:32:41;20.92;;;6.75;;
21890;SDS011;11110;52.386;16.940;2022-08-01T07:35:10;16.15;;;6.78;;
21890;SDS011;11110;52.386;16.940;2022-08-01T07:37:40;22.42;;;8.13;;
21890;SDS011;11110;52.386;16.940;2022-08-01T07:40:15;22.00;;;7.72;;
21890;SDS011;11110;52.386;16.940;2022-08-01T07:42:45;20.73;;;7.68;;
21890;SDS011;11110;52.386;16.940;2022-08-01T07:45:13;22.70;;;8.05;;
21890;SDS011;11110;52.386;16.940;2022-08-01T07:47:42;20.77;;;6.85;;
21890;SDS011;11110;52.386;16.940;2022-08-01T07:50:11;22.60;;;8.50;;
21890;SDS011;11110;52.386;16.940;2022-08-01T07:52:42;18.45;;;7.00;;
21890;SDS011;11110;52.386;16.940;2022-08-01T07:55:12;21.30;;;7.75;;
21890;SDS011;11110;52.386;16.940;2022-08-01T07:57:42;16.25;;;7.13;;
21890;SDS011;11110;52.386;16.940;2022-08-01T08:00:11;23.08;;;7.88;;
21890;SDS011;11110;52.386;16.940;2022-08-01T08:02:40;20.35;;;7.60;;
21890;SDS011;11110;52.386;16.940;2022-08-01T08:05:08;22.55;;;7.63;;
21890;SDS011;11110;52.386;16.940;2022-08-01T08:07:37;22.75;;;8.50;;
21890;SDS011;11110;52.386;16.940;2022-08-01T08:10:07;16.92;;;7.60;;
21890;SDS011;11110;52.386;16.940;2022-08-01T08:12:36;20.00;;;7.85;;
21890;SDS011;11110;52.386;16.940;2022-08-01T08:15:05;20.50;;;7.80;;
21890;SDS011;11110;52.386;16.940;2022-08-01T08:17:34;19.85;;;7.72;;
21890;SDS011;11110;52.386;16.940;2022-08-01T08:20:03;22.95;;;7.95;;
21890;SDS011;11110;52.386;16.940;2022-08-01T08:22:36;14.32;;;6.97;;
21890;SDS011;11110;52.386;16.940;2022-08-01T08:25:05;20.63;;;7.55;;
21890;SDS011;11110;52.386;16.940;2022-08-01T08:27:38;21.35;;;7.97;;
21890;SDS011;11110;52.386;16.940;2022-08-01T08:30:06;20.33;;;8.07;;
21890;SDS011;11110;52.386;16.940;2022-08-01T08:32:37;16.90;;;7.38;;
21890;SDS011;11110;52.386;16.940;2022-08-01T08:35:06;20.13;;;8.10;;
21890;SDS011;11110;52.386;16.940;2022-08-01T08:37:38;19.25;;;7.63;;
21890;SDS011;11110;52.386;16.940;2022-08-01T08:40:16;24.33;;;8.45;;
21890;SDS011;11110;52.386;16.940;2022-08-01T08:42:45;20.85;;;8.25;;
21890;SDS011;11110;52.386;16.940;2022-08-01T08:45:13;26.05;;;9.25;;
21890;SDS011;11110;52.386;16.940;2022-08-01T08:47:42;20.73;;;8.50;;
21890;SDS011;11110;52.386;16.940;2022-08-01T08:50:14;17.38;;;7.70;;
21890;SDS011;11110;52.386;16.940;2022-08-01T08:52:43;12.98;;;7.03;;
21890;SDS011;11110;52.386;16.940;2022-08-01T08:55:16;20.30;;;7.80;;
21890;SDS011;11110;52.386;16.940;2022-08-01T08:57:45;19.17;;;8.07;;
21890;SDS011;11110;52.386;16.940;2022-08-01T09:00:14;13.98;;;7.18;;
21890;SDS011;11110;52.386;16.940;2022-08-01T09:02:43;20.40;;;9.55;;
21890;SDS011;11110;52.386;16.940;2022-08-01T09:05:13;15.63;;;7.90;;
21890;SDS011;11110;52.386;16.940;2022-08-01T09:07:45;22.00;;;9.88;;
21890;SDS011;11110;52.386;16.940;2022-08-01T09:10:14;25.08;;;9.18;;
21890;SDS011;11110;52.386;16.940;2022-08-01T09:15:38;22.42;;;9.35;;
21890;SDS011;11110;52.386;16.940;2022-08-01T09:18:08;16.13;;;8.13;;
21890;SDS011;11110;52.386;16.940;2022-08-01T09:20:36;18.25;;;8.23;;
21890;SDS011;11110;52.386;16.940;2022-08-01T09:23:04;17.08;;;7.95;;
21890;SDS011;11110;52.386;16.940;2022-08-01T09:28:28;18.42;;;7.60;;
21890;SDS011;11110;52.386;16.940;2022-08-01T09:30:57;14.95;;;7.30;;
21890;SDS011;11110;52.386;16.940;2022-08-01T09:33:28;19.25;;;8.02;;
21890;SDS011;11110;52.386;16.940;2022-08-01T09:36:18;20.77;;;8.38;;
21890;SDS011;11110;52.386;16.940;2022-08-01T09:38:47;16.48;;;7.32;;
21890;SDS011;11110;52.386;16.940;2022-08-01T09:41:17;14.90;;;7.43;;
21890;SDS011;11110;52.386;16.940;2022-08-01T09:44:07;19.15;;;8.13;;
21890;SDS011;11110;52.386;16.940;2022-08-01T09:46:35;13.10;;;6.30;;
21890;SDS011;11110;52.386;16.940;2022-08-01T09:49:28;22.48;;;7.57;;
21890;SDS011;11110;52.386;16.940;2022-08-01T09:52:17;11.50;;;5.63;;
21890;SDS011;11110;52.386;16.940;2022-08-01T09:54:54;8.77;;;5.32;;
21890;SDS011;11110;52.386;16.940;2022-08-01T09:57:24;10.68;;;5.43;;
21890;SDS011;11110;52.386;16.940;2022-08-01T09:59:56;14.25;;;5.57;;
21890;SDS011;11110;52.386;16.940;2022-08-01T10:02:28;13.13;;;5.05;;
21890;SDS011;11110;52.386;16.940;2022-08-01T10:05:00;12.40;;;4.78;;
21890;SDS011;11110;52.386;16.940;2022-08-01T10:07:35;9.85;;;4.38;;
21890;SDS011;11110;52.386;16.940;2022-08-01T10:10:10;9.20;;;4.35;;
21890;SDS011;11110;52.386;16.940;2022-08-01T10:12:42;14.13;;;5.00;;
21890;SDS011;11110;52.386;16.940;2022-08-01T10:15:17;16.25;;;5.28;;
21890;SDS011;11110;52.386;16.940;2022-08-01T10:17:50;9.65;;;4.10;;
21890;SDS011;11110;52.386;16.940;2022-08-01T10:20:24;15.02;;;4.93;;
21890;SDS011;11110;52.386;16.940;2022-08-01T10:22:58;5.80;;;3.42;;
21890;SDS011;11110;52.386;16.940;2022-08-01T10:25:33;13.75;;;4.57;;
21890;SDS011;11110;52.386;16.940;2022-08-01T10:28:11;10.05;;;4.18;;
21890;SDS011;11110;52.386;16.940;2022-08-01T10:30:51;11.77;;;4.47;;
21890;SDS011;11110;52.386;16.940;2022-08-01T10:33:21;12.68;;;4.40;;
21890;SDS011;11110;52.386;16.940;2022-08-01T10:36:10;13.30;;;4.53;;
21890;SDS011;11110;52.386;16.940;2022-08-01T10:38:39;13.70;;;4.78;;
21890;SDS011;11110;52.386;16.940;2022-08-01T10:41:09;11.38;;;4.10;;
21890;SDS011;11110;52.386;16.940;2022-08-01T10:43:39;13.45;;;4.45;;
21890;SDS011;11110;52.386;16.940;2022-08-01T10:46:13;12.32;;;4.25;;
21890;SDS011;11110;52.386;16.940;2022-08-01T10:48:45;15.45;;;4.47;;
21890;SDS011;11110;52.386;16.940;2022-08-01T10:51:19;15.68;;;4.22;;
21890;SDS011;11110;52.386;16.940;2022-08-01T10:54:09;13.82;;;4.78;;
21890;SDS011;11110;52.386;16.940;2022-08-01T10:56:40;9.40;;;3.97;;
21890;SDS011;11110;52.386;16.940;2022-08-01T10:59:14;12.40;;;4.22;;
21890;SDS011;11110;52.386;16.940;2022-08-01T11:02:06;12.40;;;4.55;;
21890;SDS011;11110;52.386;16.940;2022-08-01T11:04:40;12.77;;;4.43;;
21890;SDS011;11110;52.386;16.940;2022-08-01T11:07:17;6.43;;;3.22;;
21890;SDS011;11110;52.386;16.940;2022-08-01T11:10:02;13.88;;;4.30;;
21890;SDS011;11110;52.386;16.940;2022-08-01T11:12:40;13.00;;;4.45;;
21890;SDS011;11110;52.386;16.940;2022-08-01T11:15:16;13.60;;;4.07;;
21890;SDS011;11110;52.386;16.940;2022-08-01T11:17:59;14.07;;;4.63;;
21890;SDS011;11110;52.386;16.940;2022-08-01T11:20:31;14.32;;;4.47;;
21890;SDS011;11110;52.386;16.940;2022-08-01T11:23:17;10.55;;;3.70;;
21890;SDS011;11110;52.386;16.940;2022-08-01T11:29:11;12.93;;;4.38;;
21890;SDS011;11110;52.386;16.940;2022-08-01T11:31:48;15.82;;;4.75;;
21890;SDS011;11110;52.386;16.940;2022-08-01T11:34:20;10.30;;;3.80;;
21890;SDS011;11110;52.386;16.940;2022-08-01T11:37:24;9.90;;;3.75;;
21890;SDS011;11110;52.386;16.940;2022-08-01T11:40:15;13.90;;;4.47;;
21890;SDS011;11110;52.386;16.940;2022-08-01T11:42:45;16.65;;;5.63;;
21890;SDS011;11110;52.386;16.940;2022-08-01T11:45:13;11.65;;;4.20;;
21890;SDS011;11110;52.386;16.940;2022-08-01T11:47:44;12.90;;;4.45;;
21890;SDS011;11110;52.386;16.940;2022-08-01T11:50:34;14.27;;;4.03;;
21890;SDS011;11110;52.386;16.940;2022-08-01T11:53:04;12.63;;;4.40;;
21890;SDS011;11110;52.386;16.940;2022-08-01T11:55:34;12.38;;;4.05;;
21890;SDS011;11110;52.386;16.940;2022-08-01T11:58:03;11.57;;;3.80;;
21890;SDS011;11110;52.386;16.940;2022-08-01T12:00:34;13.68;;;4.35;;
21890;SDS011;11110;52.386;16.940;2022-08-01T12:03:09;11.82;;;3.65;;
21890;SDS011;11110;52.386;16.940;2022-08-01T12:05:53;8.98;;;3.20;;
21890;SDS011;11110;52.386;16.940;2022-08-01T12:08:26;7.85;;;3.40;;
21890;SDS011;11110;52.386;16.940;2022-08-01T12:10:55;6.78;;;2.97;;
21890;SDS011;11110;52.386;16.940;2022-08-01T12:13:28;11.63;;;4.07;;
21890;SDS011;11110;52.386;16.940;2022-08-01T12:16:07;9.60;;;3.40;;
21890;SDS011;11110;52.386;16.940;2022-08-01T12:18:37;7.88;;;3.35;;
21890;SDS011;11110;52.386;16.940;2022-08-01T12:21:08;14.45;;;4.47;;
21890;SDS011;11110;52.386;16.940;2022-08-01T12:23:36;12.40;;;3.85;;
21890;SDS011;11110;52.386;16.940;2022-08-01T12:26:05;9.50;;;3.28;;
21890;SDS011;11110;52.386;16.940;2022-08-01T12:28:38;14.27;;;4.57;;
21890;SDS011;11110;52.386;16.940;2022-08-01T12:33:38;13.70;;;4.15;;
21890;SDS011;11110;52.386;16.940;2022-08-01T12:36:08;12.88;;;4.00;;
21890;SDS011;11110;52.386;16.940;2022-08-01T12:38:40;13.90;;;4.53;;
21890;SDS011;11110;52.386;16.940;2022-08-01T12:41:10;12.18;;;4.20;;
21890;SDS011;11110;52.386;16.940;2022-08-01T12:43:38;8.70;;;3.60;;
21890;SDS011;11110;52.386;16.940;2022-08-01T12:46:08;12.65;;;3.92;;
21890;SDS011;11110;52.386;16.940;2022-08-01T12:48:42;12.05;;;4.40;;
21890;SDS011;11110;52.386;16.940;2022-08-01T12:51:13;13.23;;;4.47;;
21890;SDS011;11110;52.386;16.940;2022-08-01T12:53:41;8.57;;;3.50;;
21890;SDS011;11110;52.386;16.940;2022-08-01T12:56:09;10.63;;;3.70;;
21890;SDS011;11110;52.386;16.940;2022-08-01T12:58:38;9.50;;;3.78;;
21890;SDS011;11110;52.386;16.940;2022-08-01T13:01:08;13.75;;;4.07;;
21890;SDS011;11110;52.386;16.940;2022-08-01T13:03:39;7.97;;;3.15;;
21890;SDS011;11110;52.386;16.940;2022-08-01T13:06:13;9.88;;;3.70;;
21890;SDS011;11110;52.386;16.940;2022-08-01T13:08:44;8.52;;;3.13;;
21890;SDS011;11110;52.386;16.940;2022-08-01T13:11:14;11.48;;;3.95;;
21890;SDS011;11110;52.386;16.940;2022-08-01T13:13:46;9.65;;;3.40;;
21890;SDS011;11110;52.386;16.940;2022-08-01T13:16:16;10.07;;;3.72;;
21890;SDS011;11110;52.386;16.940;2022-08-01T13:18:59;13.35;;;4.05;;
21890;SDS011;11110;52.386;16.940;2022-08-01T13:21:30;12.10;;;4.15;;
21890;SDS011;11110;52.386;16.940;2022-08-01T13:24:22;12.23;;;4.45;;
21890;SDS011;11110;52.386;16.940;2022-08-01T13:26:53;9.02;;;3.40;;
21890;SDS011;11110;52.386;16.940;2022-08-01T13:29:31;11.60;;;3.90;;
21890;SDS011;11110;52.386;16.940;2022-08-01T13:32:11;11.00;;;3.88;;
21890;SDS011;11110;52.386;16.940;2022-08-01T13:35:02;10.68;;;3.75;;
21890;SDS011;11110;52.386;16.940;2022-08-01T13:37:33;9.00;;;3.22;;
21890;SDS011;11110;52.386;16.940;2022-08-01T13:40:05;9.07;;;3.22;;
21890;SDS011;11110;52.386;16.940;2022-08-01T13:42:34;7.32;;;2.92;;
21890;SDS011;11110;52.386;16.940;2022-08-01T13:45:03;10.40;;;4.13;;
21890;SDS011;11110;52.386;16.940;2022-08-01T13:47:40;8.98;;;3.35;;
21890;SDS011;11110;52.386;16.940;2022-08-01T13:50:29;11.30;;;4.22;;
21890;SDS011;11110;52.386;16.940;2022-08-01T13:52:59;9.23;;;4.00;;
21890;SDS011;11110;52.386;16.940;2022-08-01T13:55:28;8.63;;;3.78;;
21890;SDS011;11110;52.386;16.940;2022-08-01T13:58:00;7.30;;;3.60;;
21890;SDS011;11110;52.386;16.940;2022-08-01T14:00:29;7.40;;;3.38;;
21890;SDS011;11110;52.386;16.940;2022-08-01T14:02:58;9.40;;;4.65;;
21890;SDS011;11110;52.386;16.940;2022-08-01T14:05:27;11.38;;;4.18;;
21890;SDS011;11110;52.386;16.940;2022-08-01T14:07:55;8.77;;;3.50;;
21890;SDS011;11110;52.386;16.940;2022-08-01T14:10:25;7.22;;;3.42;;
21890;SDS011;11110;52.386;16.940;2022-08-01T14:12:54;5.55;;;3.25;;
21890;SDS011;11110;52.386;16.940;2022-08-01T14:15:24;7.80;;;3.08;;
21890;SDS011;11110;52.386;16.940;2022-08-01T14:18:06;12.82;;;4.50;;
21890;SDS011;11110;52.386;16.940;2022-08-01T14:20:37;11.95;;;4.00;;
21890;SDS011;11110;52.386;16.940;2022-08-01T14:23:07;8.75;;;3.85;;
21890;SDS011;11110;52.386;16.940;2022-08-01T14:25:37;10.00;;;4.63;;
21890;SDS011;11110;52.386;16.940;2022-08-01T14:28:27;11.27;;;4.78;;
21890;SDS011;11110;52.386;16.940;2022-08-01T14:30:57;14.60;;;5.55;;
21890;SDS011;11110;52.386;16.940;2022-08-01T14:33:26;11.52;;;4.22;;
21890;SDS011;11110;52.386;16.940;2022-08-01T14:35:55;8.23;;;3.65;;
21890;SDS011;11110;52.386;16.940;2022-08-01T14:38:43;10.05;;;4.07;;
21890;SDS011;11110;52.386;16.940;2022-08-01T14:41:14;9.20;;;3.72;;
21890;SDS011;11110;52.386;16.940;2022-08-01T14:43:42;14.00;;;4.85;;
21890;SDS011;11110;52.386;16.940;2022-08-01T14:46:11;11.85;;;4.38;;
21890;SDS011;11110;52.386;16.940;2022-08-01T14:48:40;8.85;;;3.83;;
21890;SDS011;11110;52.386;16.940;2022-08-01T14:51:08;8.95;;;3.75;;
21890;SDS011;11110;52.386;16.940;2022-08-01T14:53:36;8.40;;;4.00;;
21890;SDS011;11110;52.386;16.940;2022-08-01T14:56:14;7.70;;;3.42;;
21890;SDS011;11110;52.386;16.940;2022-08-01T14:58:43;7.75;;;3.95;;
21890;SDS011;11110;52.386;16.940;2022-08-01T15:01:14;13.75;;;4.25;;
21890;SDS011;11110;52.386;16.940;2022-08-01T15:03:43;6.75;;;2.90;;